sensor_id;sensor_type;location;lat;lon;timestamp;P1;durP1;ratioP1;P2;durP2;ratioP2
76953;SDS011;65893;51.698;-0.292;2023-04-10T00:01:09;13.70;;;5.82;;
76953;SDS011;65893;51.698;-0.292;2023-04-10T00:03:35;16.05;;;5.47;;
76953;SDS011;65893;51.698;-0.292;2023-04-10T00:06:01;11.93;;;4.95;;
76953;SDS011;65893;51.698;-0.292;2023-04-10T00:08:27;14.60;;;5.88;;
76953;SDS011;65893;51.698;-0.292;2023-04-10T00:10:53;10.73;;;5.30;;
76953;SDS011;65893;51.698;-0.292;2023-04-10T00:13:21;11.32;;;4.95;;
76953;SDS011;65893;51.698;-0.292;2023-04-10T00:15:47;11.70;;;5.53;;
76953;SDS011;65893;51.698;-0.292;2023-04-10T00:18:14;12.55;;;5.20;;
76953;SDS011;65893;51.698;-0.292;2023-04-10T00:20:40;13.85;;;5.60;;
76953;SDS011;65893;51.698;-0.292;2023-04-10T00:23:07;11.82;;;5.40;;
76953;SDS011;65893;51.698;-0.292;2023-04-10T00:25:33;13.65;;;5.47;;
76953;SDS011;65893;51.698;-0.292;2023-04-10T00:27:59;13.48;;;5.72;;
76953;SDS011;65893;51.698;-0.292;2023-04-10T00:30:25;12.07;;;5.35;;
76953;SDS011;65893;51.698;-0.292;2023-04-10T00:32:51;11.60;;;5.53;;
76953;SDS011;65893;51.698;-0.292;2023-04-10T00:35:17;17.17;;;5.80;;
76953;SDS011;65893;51.698;-0.292;2023-04-10T00:37:43;11.38;;;5.00;;
76953;SDS011;65893;51.698;-0.292;2023-04-10T00:40:09;15.05;;;6.47;;
76953;SDS011;65893;51.698;-0.292;2023-04-10T00:42:36;11.77;;;6.13;;
76953;SDS011;65893;51.698;-0.292;2023-04-10T00:45:02;11.02;;;5.18;;
76953;SDS011;65893;51.698;-0.292;2023-04-10T00:47:29;12.18;;;5.22;;
76953;SDS011;65893;51.698;-0.292;2023-04-10T00:49:55;13.73;;;6.10;;
76953;SDS011;65893;51.698;-0.292;2023-04-10T00:52:22;11.05;;;5.00;;
76953;SDS011;65893;51.698;-0.292;2023-04-10T00:54:49;13.40;;;5.57;;
76953;SDS011;65893;51.698;-0.292;2023-04-10T00:57:15;11.43;;;5.95;;
76953;SDS011;65893;51.698;-0.292;2023-04-10T00:59:42;12.73;;;5.72;;
76953;SDS011;65893;51.698;-0.292;2023-04-10T01:02:08;14.57;;;5.32;;
76953;SDS011;65893;51.698;-0.292;2023-04-10T01:04:36;14.93;;;5.78;;
76953;SDS011;65893;51.698;-0.292;2023-04-10T01:07:04;12.07;;;5.43;;
76953;SDS011;65893;51.698;-0.292;2023-04-10T01:09:40;15.40;;;6.20;;
76953;SDS011;65893;51.698;-0.292;2023-04-10T01:12:52;13.52;;;6.20;;
76953;SDS011;65893;51.698;-0.292;2023-04-10T01:15:06;12.45;;;5.05;;
76953;SDS011;65893;51.698;-0.292;2023-04-10T01:20:20;12.85;;;5.78;;
76953;SDS011;65893;51.698;-0.292;2023-04-10T01:25:49;15.25;;;6.95;;
76953;SDS011;65893;51.698;-0.292;2023-04-10T01:30:49;14.27;;;6.78;;
76953;SDS011;65893;51.698;-0.292;2023-04-10T01:33:17;15.48;;;7.68;;
76953;SDS011;65893;51.698;-0.292;2023-04-10T01:35:45;16.38;;;7.88;;
76953;SDS011;65893;51.698;-0.292;2023-04-10T01:38:12;15.57;;;8.10;;
76953;SDS011;65893;51.698;-0.292;2023-04-10T01:40:38;15.27;;;7.82;;
76953;SDS011;65893;51.698;-0.292;2023-04-10T01:43:07;18.35;;;7.55;;
76953;SDS011;65893;51.698;-0.292;2023-04-10T01:45:35;16.50;;;7.80;;
76953;SDS011;65893;51.698;-0.292;2023-04-10T01:48:02;18.02;;;8.30;;
76953;SDS011;65893;51.698;-0.292;2023-04-10T01:50:28;17.77;;;8.15;;
76953;SDS011;65893;51.698;-0.292;2023-04-10T01:52:55;18.35;;;8.18;;
76953;SDS011;65893;51.698;-0.292;2023-04-10T01:55:21;18.20;;;8.35;;
76953;SDS011;65893;51.698;-0.292;2023-04-10T01:57:47;19.88;;;7.95;;
76953;SDS011;65893;51.698;-0.292;2023-04-10T02:00:14;18.80;;;7.90;;
76953;SDS011;65893;51.698;-0.292;2023-04-10T02:02:40;20.30;;;8.73;;
76953;SDS011;65893;51.698;-0.292;2023-04-10T02:05:07;20.60;;;8.27;;
76953;SDS011;65893;51.698;-0.292;2023-04-10T02:10:39;19.83;;;8.00;;
76953;SDS011;65893;51.698;-0.292;2023-04-10T02:13:06;16.27;;;7.57;;
76953;SDS011;65893;51.698;-0.292;2023-04-10T02:15:33;20.50;;;9.25;;
76953;SDS011;65893;51.698;-0.292;2023-04-10T02:18:00;17.52;;;7.88;;
76953;SDS011;65893;51.698;-0.292;2023-04-10T02:20:29;15.45;;;7.05;;
76953;SDS011;65893;51.698;-0.292;2023-04-10T02:22:56;19.23;;;8.65;;
76953;SDS011;65893;51.698;-0.292;2023-04-10T02:25:26;17.08;;;7.57;;
76953;SDS011;65893;51.698;-0.292;2023-04-10T02:27:52;19.27;;;8.55;;
76953;SDS011;65893;51.698;-0.292;2023-04-10T02:30:18;19.10;;;8.38;;
76953;SDS011;65893;51.698;-0.292;2023-04-10T02:32:48;17.02;;;8.50;;
76953;SDS011;65893;51.698;-0.292;2023-04-10T02:35:14;20.70;;;8.18;;
76953;SDS011;65893;51.698;-0.292;2023-04-10T02:37:40;16.00;;;7.55;;
76953;SDS011;65893;51.698;-0.292;2023-04-10T02:40:07;21.20;;;8.68;;
76953;SDS011;65893;51.698;-0.292;2023-04-10T02:42:33;16.80;;;8.45;;
76953;SDS011;65893;51.698;-0.292;2023-04-10T02:44:59;21.13;;;8.70;;
76953;SDS011;65893;51.698;-0.292;2023-04-10T02:47:25;17.90;;;7.78;;
76953;SDS011;65893;51.698;-0.292;2023-04-10T02:49:51;18.98;;;9.13;;
76953;SDS011;65893;51.698;-0.292;2023-04-10T02:52:17;20.73;;;8.48;;
76953;SDS011;65893;51.698;-0.292;2023-04-10T02:54:43;15.45;;;6.47;;
76953;SDS011;65893;51.698;-0.292;2023-04-10T02:57:10;16.88;;;7.40;;
76953;SDS011;65893;51.698;-0.292;2023-04-10T02:59:36;16.10;;;6.03;;
76953;SDS011;65893;51.698;-0.292;2023-04-10T03:02:03;18.80;;;7.72;;
76953;SDS011;65893;51.698;-0.292;2023-04-10T03:04:30;16.45;;;8.07;;
76953;SDS011;65893;51.698;-0.292;2023-04-10T03:06:56;18.98;;;7.93;;
76953;SDS011;65893;51.698;-0.292;2023-04-10T03:09:23;19.38;;;9.10;;
76953;SDS011;65893;51.698;-0.292;2023-04-10T03:11:52;15.82;;;7.32;;
76953;SDS011;65893;51.698;-0.292;2023-04-10T03:14:18;20.90;;;8.82;;
76953;SDS011;65893;51.698;-0.292;2023-04-10T03:16:44;16.13;;;7.43;;
76953;SDS011;65893;51.698;-0.292;2023-04-10T03:19:12;14.80;;;6.65;;
76953;SDS011;65893;51.698;-0.292;2023-04-10T03:21:38;15.98;;;6.95;;
76953;SDS011;65893;51.698;-0.292;2023-04-10T03:24:04;14.45;;;6.35;;
76953;SDS011;65893;51.698;-0.292;2023-04-10T03:26:31;13.73;;;6.18;;
76953;SDS011;65893;51.698;-0.292;2023-04-10T03:28:57;17.13;;;6.10;;
76953;SDS011;65893;51.698;-0.292;2023-04-10T03:31:23;15.85;;;6.35;;
76953;SDS011;65893;51.698;-0.292;2023-04-10T03:33:49;14.50;;;5.97;;
76953;SDS011;65893;51.698;-0.292;2023-04-10T03:36:15;17.70;;;6.18;;
76953;SDS011;65893;51.698;-0.292;2023-04-10T03:38:41;12.90;;;5.50;;
76953;SDS011;65893;51.698;-0.292;2023-04-10T03:41:07;16.20;;;5.47;;
76953;SDS011;65893;51.698;-0.292;2023-04-10T03:43:34;15.18;;;6.70;;
76953;SDS011;65893;51.698;-0.292;2023-04-10T03:46:00;16.73;;;5.72;;
76953;SDS011;65893;51.698;-0.292;2023-04-10T03:48:26;14.68;;;5.80;;
76953;SDS011;65893;51.698;-0.292;2023-04-10T03:50:53;17.63;;;6.10;;
76953;SDS011;65893;51.698;-0.292;2023-04-10T03:53:19;13.70;;;6.13;;
76953;SDS011;65893;51.698;-0.292;2023-04-10T03:55:45;21.35;;;6.90;;
76953;SDS011;65893;51.698;-0.292;2023-04-10T03:58:11;13.68;;;5.55;;
76953;SDS011;65893;51.698;-0.292;2023-04-10T04:00:37;17.40;;;7.18;;
76953;SDS011;65893;51.698;-0.292;2023-04-10T04:03:04;14.05;;;6.32;;
76953;SDS011;65893;51.698;-0.292;2023-04-10T04:05:30;17.95;;;7.32;;
76953;SDS011;65893;51.698;-0.292;2023-04-10T04:07:56;15.43;;;6.68;;
76953;SDS011;65893;51.698;-0.292;2023-04-10T04:10:22;15.27;;;6.03;;
76953;SDS011;65893;51.698;-0.292;2023-04-10T04:12:48;16.08;;;6.50;;
76953;SDS011;65893;51.698;-0.292;2023-04-10T04:15:15;15.10;;;5.35;;
76953;SDS011;65893;51.698;-0.292;2023-04-10T04:17:41;13.38;;;6.03;;
76953;SDS011;65893;51.698;-0.292;2023-04-10T04:20:07;14.32;;;5.13;;
76953;SDS011;65893;51.698;-0.292;2023-04-10T04:22:33;13.35;;;5.72;;
76953;SDS011;65893;51.698;-0.292;2023-04-10T04:24:59;14.98;;;5.95;;
76953;SDS011;65893;51.698;-0.292;2023-04-10T04:27:25;12.93;;;6.28;;
76953;SDS011;65893;51.698;-0.292;2023-04-10T04:29:51;16.55;;;6.32;;
76953;SDS011;65893;51.698;-0.292;2023-04-10T04:32:17;6.13;;;2.78;;
76953;SDS011;65893;51.698;-0.292;2023-04-10T04:34:43;14.32;;;5.90;;
76953;SDS011;65893;51.698;-0.292;2023-04-10T04:37:09;13.35;;;5.97;;
76953;SDS011;65893;51.698;-0.292;2023-04-10T04:39:35;15.60;;;5.72;;
76953;SDS011;65893;51.698;-0.292;2023-04-10T04:42:01;11.60;;;5.25;;
76953;SDS011;65893;51.698;-0.292;2023-04-10T04:44:27;11.32;;;5.10;;
76953;SDS011;65893;51.698;-0.292;2023-04-10T04:46:53;11.63;;;4.80;;
76953;SDS011;65893;51.698;-0.292;2023-04-10T04:49:19;15.70;;;6.15;;
76953;SDS011;65893;51.698;-0.292;2023-04-10T04:51:45;11.93;;;4.60;;
76953;SDS011;65893;51.698;-0.292;2023-04-10T04:54:11;11.13;;;5.20;;
76953;SDS011;65893;51.698;-0.292;2023-04-10T04:56:37;9.25;;;4.15;;
76953;SDS011;65893;51.698;-0.292;2023-04-10T04:59:03;13.20;;;4.95;;
76953;SDS011;65893;51.698;-0.292;2023-04-10T05:01:29;13.32;;;5.20;;
76953;SDS011;65893;51.698;-0.292;2023-04-10T05:03:55;12.35;;;5.03;;
76953;SDS011;65893;51.698;-0.292;2023-04-10T05:06:21;13.57;;;4.80;;
76953;SDS011;65893;51.698;-0.292;2023-04-10T05:08:47;12.45;;;4.43;;
76953;SDS011;65893;51.698;-0.292;2023-04-10T05:11:13;8.85;;;3.53;;
76953;SDS011;65893;51.698;-0.292;2023-04-10T05:13:40;10.45;;;4.00;;
76953;SDS011;65893;51.698;-0.292;2023-04-10T05:16:06;9.30;;;4.20;;
76953;SDS011;65893;51.698;-0.292;2023-04-10T05:18:33;11.23;;;3.95;;
76953;SDS011;65893;51.698;-0.292;2023-04-10T05:20:59;8.57;;;3.42;;
76953;SDS011;65893;51.698;-0.292;2023-04-10T05:23:26;8.23;;;3.38;;
76953;SDS011;65893;51.698;-0.292;2023-04-10T05:25:52;10.13;;;3.25;;
76953;SDS011;65893;51.698;-0.292;2023-04-10T05:28:18;7.05;;;2.85;;
76953;SDS011;65893;51.698;-0.292;2023-04-10T05:30:44;8.43;;;3.60;;
76953;SDS011;65893;51.698;-0.292;2023-04-10T05:33:10;7.22;;;3.05;;
76953;SDS011;65893;51.698;-0.292;2023-04-10T05:35:36;7.90;;;2.83;;
76953;SDS011;65893;51.698;-0.292;2023-04-10T05:38:02;5.63;;;2.35;;
76953;SDS011;65893;51.698;-0.292;2023-04-10T05:40:28;6.93;;;2.88;;
76953;SDS011;65893;51.698;-0.292;2023-04-10T05:42:54;6.32;;;2.50;;
76953;SDS011;65893;51.698;-0.292;2023-04-10T05:45:20;7.60;;;2.47;;
76953;SDS011;65893;51.698;-0.292;2023-04-10T05:47:46;7.93;;;2.47;;
76953;SDS011;65893;51.698;-0.292;2023-04-10T05:50:12;7.38;;;2.80;;
76953;SDS011;65893;51.698;-0.292;2023-04-10T05:52:38;6.53;;;2.85;;
76953;SDS011;65893;51.698;-0.292;2023-04-10T05:55:04;6.88;;;2.38;;
76953;SDS011;65893;51.698;-0.292;2023-04-10T05:57:31;7.20;;;2.55;;
76953;SDS011;65893;51.698;-0.292;2023-04-10T05:59:56;6.72;;;2.85;;
76953;SDS011;65893;51.698;-0.292;2023-04-10T06:02:22;6.45;;;2.50;;
76953;SDS011;65893;51.698;-0.292;2023-04-10T06:04:48;8.43;;;2.53;;
76953;SDS011;65893;51.698;-0.292;2023-04-10T06:07:15;9.45;;;3.20;;
76953;SDS011;65893;51.698;-0.292;2023-04-10T06:09:41;8.85;;;3.15;;
76953;SDS011;65893;51.698;-0.292;2023-04-10T06:12:07;6.72;;;2.78;;
76953;SDS011;65893;51.698;-0.292;2023-04-10T06:14:33;5.70;;;2.58;;
76953;SDS011;65893;51.698;-0.292;2023-04-10T06:16:59;7.00;;;2.60;;
76953;SDS011;65893;51.698;-0.292;2023-04-10T06:19:26;7.22;;;2.97;;
76953;SDS011;65893;51.698;-0.292;2023-04-10T06:21:52;7.90;;;2.83;;
76953;SDS011;65893;51.698;-0.292;2023-04-10T06:24:18;8.35;;;2.97;;
76953;SDS011;65893;51.698;-0.292;2023-04-10T06:26:44;6.40;;;2.25;;
76953;SDS011;65893;51.698;-0.292;2023-04-10T06:29:10;5.75;;;2.33;;
76953;SDS011;65893;51.698;-0.292;2023-04-10T06:31:36;7.95;;;2.75;;
76953;SDS011;65893;51.698;-0.292;2023-04-10T06:34:02;7.05;;;2.65;;
76953;SDS011;65893;51.698;-0.292;2023-04-10T06:36:28;8.38;;;2.88;;
76953;SDS011;65893;51.698;-0.292;2023-04-10T06:38:54;5.43;;;2.13;;
76953;SDS011;65893;51.698;-0.292;2023-04-10T06:41:20;7.13;;;2.70;;
76953;SDS011;65893;51.698;-0.292;2023-04-10T06:43:46;7.28;;;2.53;;
76953;SDS011;65893;51.698;-0.292;2023-04-10T06:46:12;10.50;;;3.00;;
76953;SDS011;65893;51.698;-0.292;2023-04-10T06:48:39;8.05;;;3.15;;
76953;SDS011;65893;51.698;-0.292;2023-04-10T06:51:06;7.55;;;2.58;;
76953;SDS011;65893;51.698;-0.292;2023-04-10T06:53:32;8.13;;;3.13;;
76953;SDS011;65893;51.698;-0.292;2023-04-10T06:55:58;9.13;;;3.42;;
76953;SDS011;65893;51.698;-0.292;2023-04-10T06:58:24;8.15;;;2.83;;
76953;SDS011;65893;51.698;-0.292;2023-04-10T07:00:50;10.55;;;2.78;;
76953;SDS011;65893;51.698;-0.292;2023-04-10T07:03:16;7.22;;;3.10;;
76953;SDS011;65893;51.698;-0.292;2023-04-10T07:05:42;9.05;;;3.20;;
76953;SDS011;65893;51.698;-0.292;2023-04-10T07:08:08;5.95;;;2.38;;
76953;SDS011;65893;51.698;-0.292;2023-04-10T07:10:34;7.25;;;2.42;;
76953;SDS011;65893;51.698;-0.292;2023-04-10T07:13:02;6.32;;;2.40;;
76953;SDS011;65893;51.698;-0.292;2023-04-10T07:15:28;5.57;;;2.28;;
76953;SDS011;65893;51.698;-0.292;2023-04-10T07:17:54;6.03;;;2.40;;
76953;SDS011;65893;51.698;-0.292;2023-04-10T07:20:20;7.85;;;2.33;;
76953;SDS011;65893;51.698;-0.292;2023-04-10T07:22:46;7.97;;;2.45;;
76953;SDS011;65893;51.698;-0.292;2023-04-10T07:25:12;7.95;;;2.28;;
76953;SDS011;65893;51.698;-0.292;2023-04-10T07:27:38;4.68;;;1.90;;
76953;SDS011;65893;51.698;-0.292;2023-04-10T07:30:05;7.28;;;2.20;;
76953;SDS011;65893;51.698;-0.292;2023-04-10T07:32:31;5.28;;;1.80;;
76953;SDS011;65893;51.698;-0.292;2023-04-10T07:34:58;9.85;;;1.80;;
76953;SDS011;65893;51.698;-0.292;2023-04-10T07:37:24;4.82;;;1.85;;
76953;SDS011;65893;51.698;-0.292;2023-04-10T07:39:50;5.03;;;1.73;;
76953;SDS011;65893;51.698;-0.292;2023-04-10T07:42:17;3.50;;;1.42;;
76953;SDS011;65893;51.698;-0.292;2023-04-10T07:44:43;5.50;;;1.83;;
76953;SDS011;65893;51.698;-0.292;2023-04-10T07:47:09;4.70;;;1.77;;
76953;SDS011;65893;51.698;-0.292;2023-04-10T07:49:35;3.17;;;1.20;;
76953;SDS011;65893;51.698;-0.292;2023-04-10T07:52:01;3.97;;;1.13;;
76953;SDS011;65893;51.698;-0.292;2023-04-10T07:54:30;9.52;;;3.05;;
76953;SDS011;65893;51.698;-0.292;2023-04-10T07:56:56;5.55;;;1.60;;
76953;SDS011;65893;51.698;-0.292;2023-04-10T07:59:22;5.82;;;1.90;;
76953;SDS011;65893;51.698;-0.292;2023-04-10T08:01:48;7.60;;;1.92;;
76953;SDS011;65893;51.698;-0.292;2023-04-10T08:04:14;11.90;;;1.67;;
76953;SDS011;65893;51.698;-0.292;2023-04-10T08:06:41;5.32;;;1.65;;
76953;SDS011;65893;51.698;-0.292;2023-04-10T08:09:06;6.38;;;1.95;;
76953;SDS011;65893;51.698;-0.292;2023-04-10T08:11:33;4.30;;;1.52;;
76953;SDS011;65893;51.698;-0.292;2023-04-10T08:14:01;5.00;;;1.63;;
76953;SDS011;65893;51.698;-0.292;2023-04-10T08:16:28;7.80;;;2.00;;
76953;SDS011;65893;51.698;-0.292;2023-04-10T08:18:55;3.40;;;1.33;;
76953;SDS011;65893;51.698;-0.292;2023-04-10T08:21:21;7.78;;;2.03;;
76953;SDS011;65893;51.698;-0.292;2023-04-10T08:23:57;4.82;;;1.73;;
76953;SDS011;65893;51.698;-0.292;2023-04-10T08:26:24;4.28;;;1.60;;
76953;SDS011;65893;51.698;-0.292;2023-04-10T08:28:51;6.15;;;1.88;;
76953;SDS011;65893;51.698;-0.292;2023-04-10T08:31:17;4.70;;;1.70;;
76953;SDS011;65893;51.698;-0.292;2023-04-10T08:33:43;7.90;;;2.42;;
76953;SDS011;65893;51.698;-0.292;2023-04-10T08:36:10;7.47;;;2.08;;
76953;SDS011;65893;51.698;-0.292;2023-04-10T08:38:40;5.82;;;1.88;;
76953;SDS011;65893;51.698;-0.292;2023-04-10T08:41:08;5.40;;;1.58;;
76953;SDS011;65893;51.698;-0.292;2023-04-10T08:43:34;8.77;;;2.15;;
76953;SDS011;65893;51.698;-0.292;2023-04-10T08:46:00;5.43;;;1.52;;
76953;SDS011;65893;51.698;-0.292;2023-04-10T08:48:30;5.15;;;1.67;;
76953;SDS011;65893;51.698;-0.292;2023-04-10T08:50:56;7.32;;;1.70;;
76953;SDS011;65893;51.698;-0.292;2023-04-10T08:53:25;7.53;;;2.38;;
76953;SDS011;65893;51.698;-0.292;2023-04-10T08:55:55;5.70;;;1.67;;
76953;SDS011;65893;51.698;-0.292;2023-04-10T08:58:21;5.68;;;1.73;;
76953;SDS011;65893;51.698;-0.292;2023-04-10T09:00:48;4.50;;;0.98;;
76953;SDS011;65893;51.698;-0.292;2023-04-10T09:03:15;4.15;;;1.42;;
76953;SDS011;65893;51.698;-0.292;2023-04-10T09:05:41;4.68;;;1.50;;
76953;SDS011;65893;51.698;-0.292;2023-04-10T09:08:08;5.63;;;1.10;;
76953;SDS011;65893;51.698;-0.292;2023-04-10T09:10:36;3.85;;;1.15;;
76953;SDS011;65893;51.698;-0.292;2023-04-10T09:13:02;3.53;;;0.85;;
76953;SDS011;65893;51.698;-0.292;2023-04-10T09:15:28;4.53;;;1.50;;
76953;SDS011;65893;51.698;-0.292;2023-04-10T09:18:00;5.38;;;1.00;;
76953;SDS011;65893;51.698;-0.292;2023-04-10T09:20:27;2.90;;;1.00;;
76953;SDS011;65893;51.698;-0.292;2023-04-10T09:22:54;3.72;;;1.42;;
76953;SDS011;65893;51.698;-0.292;2023-04-10T09:25:33;2.78;;;0.70;;
76953;SDS011;65893;51.698;-0.292;2023-04-10T09:28:06;4.15;;;0.93;;
76953;SDS011;65893;51.698;-0.292;2023-04-10T09:30:40;1.20;;;0.65;;
76953;SDS011;65893;51.698;-0.292;2023-04-10T09:33:22;2.17;;;0.70;;
76953;SDS011;65893;51.698;-0.292;2023-04-10T09:35:49;1.95;;;0.68;;
76953;SDS011;65893;51.698;-0.292;2023-04-10T09:38:16;1.67;;;0.50;;
76953;SDS011;65893;51.698;-0.292;2023-04-10T09:40:42;3.45;;;0.93;;
76953;SDS011;65893;51.698;-0.292;2023-04-10T09:48:13;2.60;;;0.52;;
76953;SDS011;65893;51.698;-0.292;2023-04-10T09:50:39;4.78;;;0.85;;
76953;SDS011;65893;51.698;-0.292;2023-04-10T09:53:09;2.03;;;0.55;;
76953;SDS011;65893;51.698;-0.292;2023-04-10T09:55:35;3.00;;;0.85;;
76953;SDS011;65893;51.698;-0.292;2023-04-10T09:58:02;4.88;;;0.70;;
76953;SDS011;65893;51.698;-0.292;2023-04-10T10:00:29;1.40;;;0.50;;
76953;SDS011;65893;51.698;-0.292;2023-04-10T10:02:55;1.05;;;0.60;;
76953;SDS011;65893;51.698;-0.292;2023-04-10T10:05:22;0.98;;;0.40;;
76953;SDS011;65893;51.698;-0.292;2023-04-10T10:07:54;4.43;;;0.65;;
76953;SDS011;65893;51.698;-0.292;2023-04-10T10:10:20;1.52;;;0.50;;
76953;SDS011;65893;51.698;-0.292;2023-04-10T10:12:47;0.95;;;0.50;;
76953;SDS011;65893;51.698;-0.292;2023-04-10T10:15:22;1.58;;;0.60;;
76953;SDS011;65893;51.698;-0.292;2023-04-10T10:20:53;0.68;;;0.43;;
76953;SDS011;65893;51.698;-0.292;2023-04-10T10:23:19;1.35;;;0.50;;
76953;SDS011;65893;51.698;-0.292;2023-04-10T10:25:47;1.73;;;0.57;;
76953;SDS011;65893;51.698;-0.292;2023-04-10T10:28:13;1.23;;;0.40;;
76953;SDS011;65893;51.698;-0.292;2023-04-10T10:30:40;3.92;;;0.40;;
76953;SDS011;65893;51.698;-0.292;2023-04-10T10:33:06;0.55;;;0.38;;
76953;SDS011;65893;51.698;-0.292;2023-04-10T10:35:36;1.48;;;0.52;;
76953;SDS011;65893;51.698;-0.292;2023-04-10T10:38:02;0.50;;;0.30;;
76953;SDS011;65893;51.698;-0.292;2023-04-10T10:48:05;12.00;;;2.15;;
76953;SDS011;65893;51.698;-0.292;2023-04-10T10:58:47;11.30;;;1.65;;
76953;SDS011;65893;51.698;-0.292;2023-04-10T11:01:13;3.15;;;0.82;;
76953;SDS011;65893;51.698;-0.292;2023-04-10T11:03:39;2.60;;;0.90;;
76953;SDS011;65893;51.698;-0.292;2023-04-10T11:06:09;2.45;;;0.77;;
76953;SDS011;65893;51.698;-0.292;2023-04-10T11:13:37;5.35;;;2.08;;
76953;SDS011;65893;51.698;-0.292;2023-04-10T11:16:05;3.10;;;1.27;;
76953;SDS011;65893;51.698;-0.292;2023-04-10T11:21:16;8.15;;;0.93;;
76953;SDS011;65893;51.698;-0.292;2023-04-10T11:31:40;3.88;;;0.52;;
76953;SDS011;65893;51.698;-0.292;2023-04-10T11:34:06;8.82;;;1.60;;
76953;SDS011;65893;51.698;-0.292;2023-04-10T11:36:33;5.95;;;1.10;;
76953;SDS011;65893;51.698;-0.292;2023-04-10T11:39:01;5.63;;;1.42;;
76953;SDS011;65893;51.698;-0.292;2023-04-10T11:42:03;5.40;;;1.50;;
76953;SDS011;65893;51.698;-0.292;2023-04-10T11:44:29;8.88;;;1.65;;
76953;SDS011;65893;51.698;-0.292;2023-04-10T11:46:56;7.05;;;1.83;;
76953;SDS011;65893;51.698;-0.292;2023-04-10T11:49:26;8.82;;;1.98;;
76953;SDS011;65893;51.698;-0.292;2023-04-10T11:51:52;7.05;;;1.63;;
76953;SDS011;65893;51.698;-0.292;2023-04-10T11:54:19;17.88;;;2.83;;
76953;SDS011;65893;51.698;-0.292;2023-04-10T11:57:07;14.77;;;2.33;;
76953;SDS011;65893;51.698;-0.292;2023-04-10T11:59:33;8.10;;;1.90;;
76953;SDS011;65893;51.698;-0.292;2023-04-10T12:02:18;9.50;;;2.50;;
76953;SDS011;65893;51.698;-0.292;2023-04-10T12:04:45;10.60;;;2.00;;
76953;SDS011;65893;51.698;-0.292;2023-04-10T12:07:22;9.88;;;2.97;;
76953;SDS011;65893;51.698;-0.292;2023-04-10T12:09:55;6.95;;;1.50;;
76953;SDS011;65893;51.698;-0.292;2023-04-10T12:12:33;7.30;;;1.63;;
76953;SDS011;65893;51.698;-0.292;2023-04-10T12:15:00;3.08;;;0.73;;
76953;SDS011;65893;51.698;-0.292;2023-04-10T12:17:26;5.00;;;1.10;;
76953;SDS011;65893;51.698;-0.292;2023-04-10T12:19:52;7.43;;;1.60;;
76953;SDS011;65893;51.698;-0.292;2023-04-10T12:22:19;5.60;;;1.17;;
76953;SDS011;65893;51.698;-0.292;2023-04-10T12:24:46;10.00;;;1.42;;
76953;SDS011;65893;51.698;-0.292;2023-04-10T12:27:19;8.73;;;1.08;;
76953;SDS011;65893;51.698;-0.292;2023-04-10T12:29:46;7.57;;;1.20;;
76953;SDS011;65893;51.698;-0.292;2023-04-10T12:32:12;8.10;;;1.58;;
76953;SDS011;65893;51.698;-0.292;2023-04-10T12:34:39;6.47;;;1.23;;
76953;SDS011;65893;51.698;-0.292;2023-04-10T12:37:05;6.32;;;1.35;;
76953;SDS011;65893;51.698;-0.292;2023-04-10T12:39:32;7.07;;;1.05;;
76953;SDS011;65893;51.698;-0.292;2023-04-10T12:42:13;11.20;;;1.55;;
76953;SDS011;65893;51.698;-0.292;2023-04-10T12:47:16;1.77;;;0.63;;
76953;SDS011;65893;51.698;-0.292;2023-04-10T12:49:42;4.60;;;1.25;;
76953;SDS011;65893;51.698;-0.292;2023-04-10T12:52:27;3.35;;;0.95;;
76953;SDS011;65893;51.698;-0.292;2023-04-10T12:54:53;3.75;;;1.10;;
76953;SDS011;65893;51.698;-0.292;2023-04-10T12:57:25;6.78;;;1.45;;
76953;SDS011;65893;51.698;-0.292;2023-04-10T12:59:51;3.22;;;1.05;;
76953;SDS011;65893;51.698;-0.292;2023-04-10T13:02:17;6.03;;;1.50;;
76953;SDS011;65893;51.698;-0.292;2023-04-10T13:04:45;4.78;;;1.13;;
76953;SDS011;65893;51.698;-0.292;2023-04-10T13:07:11;7.90;;;1.60;;
76953;SDS011;65893;51.698;-0.292;2023-04-10T13:09:37;8.98;;;1.50;;
76953;SDS011;65893;51.698;-0.292;2023-04-10T13:12:03;7.22;;;1.70;;
76953;SDS011;65893;51.698;-0.292;2023-04-10T13:14:30;6.70;;;1.38;;
76953;SDS011;65893;51.698;-0.292;2023-04-10T13:16:57;5.93;;;1.65;;
76953;SDS011;65893;51.698;-0.292;2023-04-10T13:19:23;6.88;;;1.38;;
76953;SDS011;65893;51.698;-0.292;2023-04-10T13:21:49;9.30;;;1.42;;
76953;SDS011;65893;51.698;-0.292;2023-04-10T13:24:15;5.75;;;1.20;;
76953;SDS011;65893;51.698;-0.292;2023-04-10T13:26:41;5.95;;;1.60;;
76953;SDS011;65893;51.698;-0.292;2023-04-10T13:29:08;7.05;;;0.93;;
76953;SDS011;65893;51.698;-0.292;2023-04-10T13:31:34;5.45;;;2.28;;
76953;SDS011;65893;51.698;-0.292;2023-04-10T13:34:00;7.80;;;1.75;;
76953;SDS011;65893;51.698;-0.292;2023-04-10T13:36:26;6.13;;;1.38;;
76953;SDS011;65893;51.698;-0.292;2023-04-10T13:38:52;13.68;;;1.35;;
76953;SDS011;65893;51.698;-0.292;2023-04-10T13:41:18;7.95;;;1.35;;
76953;SDS011;65893;51.698;-0.292;2023-04-10T13:43:44;4.82;;;0.70;;
76953;SDS011;65893;51.698;-0.292;2023-04-10T13:46:10;4.75;;;0.95;;
76953;SDS011;65893;51.698;-0.292;2023-04-10T13:48:36;4.80;;;0.95;;
76953;SDS011;65893;51.698;-0.292;2023-04-10T13:51:05;7.05;;;0.90;;
76953;SDS011;65893;51.698;-0.292;2023-04-10T13:53:32;5.07;;;1.23;;
76953;SDS011;65893;51.698;-0.292;2023-04-10T13:55:58;12.15;;;1.42;;
76953;SDS011;65893;51.698;-0.292;2023-04-10T13:58:24;8.10;;;1.23;;
76953;SDS011;65893;51.698;-0.292;2023-04-10T14:00:55;10.05;;;1.38;;
76953;SDS011;65893;51.698;-0.292;2023-04-10T14:03:21;6.38;;;1.40;;
76953;SDS011;65893;51.698;-0.292;2023-04-10T14:05:47;7.05;;;1.73;;
76953;SDS011;65893;51.698;-0.292;2023-04-10T14:08:15;7.40;;;1.48;;
76953;SDS011;65893;51.698;-0.292;2023-04-10T14:10:41;7.47;;;1.10;;
76953;SDS011;65893;51.698;-0.292;2023-04-10T14:13:07;7.70;;;1.00;;
76953;SDS011;65893;51.698;-0.292;2023-04-10T14:15:35;9.75;;;1.40;;
76953;SDS011;65893;51.698;-0.292;2023-04-10T14:18:01;9.68;;;1.48;;
76953;SDS011;65893;51.698;-0.292;2023-04-10T14:20:27;8.55;;;1.60;;
76953;SDS011;65893;51.698;-0.292;2023-04-10T14:22:56;10.27;;;1.20;;
76953;SDS011;65893;51.698;-0.292;2023-04-10T14:25:22;8.15;;;2.13;;
76953;SDS011;65893;51.698;-0.292;2023-04-10T14:27:48;13.20;;;1.45;;
76953;SDS011;65893;51.698;-0.292;2023-04-10T14:30:14;6.40;;;1.23;;
76953;SDS011;65893;51.698;-0.292;2023-04-10T14:32:40;6.28;;;1.20;;
76953;SDS011;65893;51.698;-0.292;2023-04-10T14:35:07;5.20;;;1.20;;
76953;SDS011;65893;51.698;-0.292;2023-04-10T14:37:33;5.70;;;1.00;;
76953;SDS011;65893;51.698;-0.292;2023-04-10T14:39:59;3.95;;;1.05;;
76953;SDS011;65893;51.698;-0.292;2023-04-10T14:42:25;2.22;;;0.60;;
76953;SDS011;65893;51.698;-0.292;2023-04-10T14:44:52;3.15;;;0.75;;
76953;SDS011;65893;51.698;-0.292;2023-04-10T14:47:18;3.58;;;0.70;;
76953;SDS011;65893;51.698;-0.292;2023-04-10T14:49:44;2.72;;;0.40;;
76953;SDS011;65893;51.698;-0.292;2023-04-10T14:52:10;5.22;;;0.95;;
76953;SDS011;65893;51.698;-0.292;2023-04-10T14:54:36;3.00;;;0.65;;
76953;SDS011;65893;51.698;-0.292;2023-04-10T14:57:02;1.48;;;0.80;;
76953;SDS011;65893;51.698;-0.292;2023-04-10T14:59:28;2.55;;;0.30;;
76953;SDS011;65893;51.698;-0.292;2023-04-10T15:01:55;2.83;;;0.43;;
76953;SDS011;65893;51.698;-0.292;2023-04-10T15:04:21;1.70;;;0.40;;
76953;SDS011;65893;51.698;-0.292;2023-04-10T15:06:47;3.92;;;0.70;;
76953;SDS011;65893;51.698;-0.292;2023-04-10T15:09:13;1.45;;;0.25;;
76953;SDS011;65893;51.698;-0.292;2023-04-10T15:11:39;2.72;;;0.70;;
76953;SDS011;65893;51.698;-0.292;2023-04-10T15:14:05;4.13;;;0.80;;
76953;SDS011;65893;51.698;-0.292;2023-04-10T15:16:32;4.38;;;1.15;;
76953;SDS011;65893;51.698;-0.292;2023-04-10T15:18:58;4.70;;;0.88;;
76953;SDS011;65893;51.698;-0.292;2023-04-10T15:21:24;11.88;;;1.23;;